• Join FlightAware (Why Join?)
  • Login
  • US Flag 
11:38AM EDT


 

Airport Tracker/Info


-or-


 

Live Flight TrackerFlight Track Log ✈ UAL527 ✈ 16-Jun-2013 ✈ KDEN - KORD

Flight Track Log - Related Links

Times and Time Zones

All times are in EDT time to prevent confusion due to time zone crossing. See the UAL527 flight status page for this flight to view local times or setup timezone preferences in your user account.

Time Position Orientation Groundspeed Altitude Reporting Facility
EDT Latitude Longitude Course Direction KTS MPH feet Rate Location/Type
02:56PM 39.8833 -104.6000 72° East 191 220 6,500  Level Denver TRACON
02:57PM 39.8833 -104.5167 90° East 239 275 7,800 1,560 Climbing Denver TRACON
02:58PM 39.8667 -104.4167 102° East 286 329 9,700 1,920 Climbing Denver TRACON
02:59PM 39.8736 -104.3758 77° East 285 328 10,500 1,920 Climbing Denver Center
03:00PM 39.8667 -104.0703 90° East  Level FlightAware Approximate
03:00PM 39.8739 -104.2528 90° East 338 389 12,500  Level Denver Center
03:01PM 39.8667 -103.9209 90° East  Level FlightAware Approximate
03:01PM 39.8839 -104.1211 84° East 339 390 16,300  Level Denver Center
03:02PM 39.8734 -103.7729 72° East  Level FlightAware Approximate
03:02PM 39.8906 -103.9944 86° East 348 400 19,300  Level Denver Center
03:03PM 39.9056 -103.8456 82° East 388 447 21,400 1,860 Climbing Denver Center
03:04PM 39.9208 -103.7092 82° East 416 479 23,200 1,740 Climbing Denver Center
03:05PM 39.9378 -103.5517 82° East 433 498 25,000 1,500 Climbing Denver Center
03:06PM 39.9567 -103.3553 83° East 457 526 26,400 1,200 Climbing Denver Center
03:07PM 39.9742 -103.1886 82° East 465 535 27,600 1,020 Climbing Denver Center
03:08PM 39.9903 -103.0175 83° East 475 547 28,600 960 Climbing Denver Center
03:09PM 40.0078 -102.8428 82° East 486 559 29,600 960 Climbing Denver Center
03:10PM 40.0278 -102.6394 83° East 500 575 30,600 1,020 Climbing Denver Center
03:11PM 40.0442 -102.4661 83° East 503 579 31,700 1,020 Climbing Denver Center
03:12PM 40.0625 -102.2606 83° East 509 586 32,800 1,080 Climbing Denver Center
03:13PM 40.0783 -102.0853 83° East 509 586 34,000 1,020 Climbing Denver Center
03:14PM 40.0939 -101.9142 83° East 500 575 35,000 840 Climbing Denver Center
03:15PM 40.1122 -101.7119 83° East 502 578 35,800 540 Climbing Denver Center
03:16PM 40.1264 -101.5383 84° East 504 580 36,200 540 Climbing Denver Center
03:17PM 40.1444 -101.3314 83° East 513 590 37,000 360 Climbing Denver Center
03:18PM 40.1586 -101.1589 84° East 504 580 37,000  Level Denver Center
03:19PM 40.1747 -100.9589 84° East 501 577 37,000  Level Denver Center
03:20PM 40.1883 -100.7842 84° East 507 583 37,000  Level Denver Center
03:21PM 40.2033 -100.5817 84° East 503 579 37,000  Level Denver Center
03:23PM 40.2072 -100.3478 89° East 507 583 37,000  Level Denver Center
03:24PM 40.2103 -100.1725 89° East 506 582 37,000  Level Denver Center
03:25PM 40.2125 -99.9978 89° East 505 581 37,000  Level Denver Center
03:26PM 40.2144 -99.7989 89° East 504 580 37,000  Level Denver Center
03:27PM 40.2169 -99.6169 89° East 502 578 37,000  Level Denver Center
03:28PM 40.2186 -99.4347 89° East 502 578 37,000  Level Denver Center
03:29PM 40.2194 -99.2522 90° East 504 580 37,000  Level Denver Center
03:30PM 40.2203 -98.9981 90° East 505 581 37,000  Level Minneapolis Center
03:31PM 40.2214 -98.8167 89° East 503 579 37,000  Level Minneapolis Center
03:32PM 40.2222 -98.6333 90° East 504 580 37,000  Level Minneapolis Center
03:33PM 40.2217 -98.4506 90° East 506 582 37,000  Level Minneapolis Center
03:34PM 40.2219 -98.2669 90° East 506 582 37,000  Level Minneapolis Center
03:35PM 40.2214 -98.0831 90° East 507 583 37,000  Level Minneapolis Center
03:36PM 40.2194 -97.8644 91° East 504 580 37,000  Level Minneapolis Center
03:37PM 40.2192 -97.6828 90° East 502 578 37,000  Level Minneapolis Center
03:38PM 40.2181 -97.5008 90° East 502 578 37,000  Level Minneapolis Center
03:39PM 40.2153 -97.3275 91° East 500 575 37,000  Level Minneapolis Center
03:40PM 40.2144 -97.1461 90° East 500 575 37,000  Level Minneapolis Center
03:41PM 40.2117 -96.9283 91° East 500 575 37,000  Level Minneapolis Center
03:42PM 40.2086 -96.7469 91° East 501 577 37,000  Level Minneapolis Center
03:43PM 40.2064 -96.5647 91° East 503 579 37,000  Level Minneapolis Center
03:44PM 40.2022 -96.3814 92° East 505 581 37,000  Level Minneapolis Center
03:45PM 40.1992 -96.1978 91° East 507 583 37,000  Level Minneapolis Center
03:46PM 40.1981 -96.0150 90° East 506 582 37,000  Level Minneapolis Center
03:47PM 40.1986 -95.7928 90° East 511 588 37,000  Level Minneapolis Center
03:49PM 40.1967 -95.6092 91° East 510 587 37,000  Level Minneapolis Center
03:50PM 40.1958 -95.4267 90° East 505 581 37,000  Level Minneapolis Center
03:51PM 40.1947 -95.2422 90° East 508 585 37,000  Level Minneapolis Center
03:52PM 40.1919 -95.0753 91° East 508 585 37,000  Level Kansas City Center
03:53PM 40.1883 -94.8683 91° East 509 586 37,000  Level Kansas City Center
03:54PM 40.1853 -94.6881 91° East 507 583 37,000  Level Kansas City Center
03:55PM 40.1822 -94.4839 91° East 509 586 37,000  Level Kansas City Center
03:56PM 40.1797 -94.3064 91° East 509 586 37,000  Level Kansas City Center
03:57PM 40.1750 -94.0989 92° East 510 587 37,000  Level Kansas City Center
03:58PM 40.1839 -93.9181 86° East 515 593 37,000  Level Kansas City Center
03:59PM 40.2122 -93.7386 78° East 510 587 37,000  Level Kansas City Center
04:00PM 40.2406 -93.5589 78° East 509 586 37,000  Level Kansas City Center
04:01PM 40.2683 -93.3789 79° East 509 586 37,000  Level Kansas City Center
04:02PM 40.3019 -93.1617 78° East 511 588 37,000  Level Kansas City Center
04:03PM 40.3275 -92.9939 79° East 506 582 37,000  Level Kansas City Center
04:04PM 40.3592 -92.7908 78° East 508 585 37,000 -240 Level Kansas City Center
04:05PM 40.3850 -92.6178 79° East 513 590 36,600 -720 Descending Kansas City Center
04:06PM 40.4111 -92.4347 79° East 513 590 35,600 -1,020 Descending Kansas City Center
04:07PM 40.4367 -92.2478 80° East 498 573 34,600 -1,020 Descending Chicago Center
04:08PM 40.4625 -92.0683 79° East 501 577 33,600 -780 Descending Chicago Center
04:09PM 40.4872 -91.8878 80° East 505 581 33,000 -300 Descending Chicago Center
04:10PM 40.5122 -91.7061 80° East 509 586 33,000  Level Chicago Center
04:11PM 40.5417 -91.4867 80° East 513 590 33,000  Level Chicago Center
04:12PM 40.5822 -91.3097 73° East 508 585 33,000  Level Kansas City Center
04:13PM 40.6417 -91.1453 64° Northeast 508 585 33,000  Level Kansas City Center
04:14PM 40.6989 -90.9769 66° East 506 582 33,000 -480 Level Chicago Center
04:15PM 40.7581 -90.8064 65° Northeast 509 586 32,100 -1,200 Descending Chicago Center
04:16PM 40.8267 -90.6006 66° East 510 587 30,600 -1,260 Descending Chicago Center
04:17PM 40.8833 -90.4314 66° East 506 582 29,500 -1,080 Descending Chicago Center
04:18PM 40.9406 -90.2611 66° East 506 582 28,400 -1,020 Descending Chicago Center
04:19PM 40.9975 -90.0881 66° East 502 578 27,400 -1,020 Descending Chicago Center
04:20PM 41.0514 -89.9228 67° East 495 570 26,300 -1,140 Descending Chicago Center
04:21PM 41.1047 -89.7603 66° East 478 550 25,100 -1,260 Descending Chicago Center
04:22PM 41.1572 -89.6006 66° East 469 540 23,700 -1,620 Descending Chicago Center
04:23PM 41.2167 -89.4500 62° Northeast 458 527 21,800 -2,220 Descending Chicago Center
04:25PM 41.2861 -89.2778 62° Northeast 442 509 19,200 -2,220 Descending Chicago Center
04:26PM 41.3381 -89.1447 62° Northeast 432 497 17,300 -1,980 Descending Chicago Center
04:27PM 41.3914 -89.0103 62° Northeast 414 476 15,200 -1,980 Descending Chicago Center
04:28PM 41.4431 -88.8808 62° Northeast 399 459 13,300 -2,040 Descending Chicago Center
04:29PM 41.5014 -88.7356 62° Northeast 374 430 11,000 -1,140 Descending Chicago Center
04:30PM 41.5467 -88.6175 63° Northeast 360 414 11,000  Level Chicago Center
04:31PM 41.5944 -88.4997 61° Northeast 359 413 11,000  Level Chicago Center
04:32PM 41.6519 -88.3922 54° Northeast 354 407 11,000  Level Chicago Center
04:33PM 41.7131 -88.2881 52° Northeast 353 406 11,000 -300 Level Chicago Center
04:34PM 41.7683 -88.1925 52° Northeast 326 375 10,500 -960 Descending Chicago Center
04:35PM 41.8314 -88.0850 52° Northeast 303 349 9,100 -1,260 Descending Chicago Center
04:36PM 41.8578 -87.9778 72° East 304 350 8,000 -1,020 Descending Chicago Center
04:37PM 41.8614 -87.8661 87° East 303 349 7,000 -540 Descending Chicago Center
04:38PM 41.8600 -87.7714 91° East 268 308 7,000 -840 Level Chicago Center
04:39PM 41.8597 -87.6800 90° East 249 287 5,300 -1,500 Descending Chicago Center
04:40PM 41.8981 -87.6211 49° Northeast 242 278 4,000 -720 Descending Chicago Center
04:41PM 41.9464 -87.6786 319° Northwest 218 251 3,900 -600 Descending Chicago Center
04:42PM 41.9697 -87.7372 298° West 193 222 2,800 -1,020 Descending Chicago Center
04:43PM 41.9697 -87.8056 270° West 187 215 1,800 -960 Descending Chicago Center